Terminal Aerodrome Forecast
Issued by NWS

Home | Current Version | Previous Version | Text Only | Print | Product List | Glossary On
Versions: 1 2 3 4 5 6 7 8 9 10 11
855
FTUS44 KEWX 120524
TAFSSF
TAF
KSSF 120524Z 1206/1306 14004KT P6SM FEW250
     FM121100 VRB03KT 1SM BR BKN004
     FM121500 10004KT P6SM BKN009
     FM121600 11005KT P6SM FEW250=

USA.gov is the U.S. government's official web portal to all federal, state and local government web resources and services.